Time;durP1;ratioP1;P1;durP2;ratioP2;P2;SDS_P1;SDS_P2;PMS_P1;PMS_P2;Temp;Humidity;BMP_temperature;BMP_pressure;BME280_temperature;BME280_humidity;BME280_pressure;Samples;Min_cycle;Max_cycle;Signal;HPM_P1;HPM_P2
2021/10/06 00:01:27;;;;;;;9.37;3.70;;;;;;;-145.18;0.00;102943.50;5030976;28;20021;-68
2021/10/06 00:03:52;;;;;;;9.90;4.40;;;;;;;-145.18;0.00;102943.50;5029601;28;20396;-68
2021/10/06 00:06:18;;;;;;;10.70;4.53;;;;;;;-145.18;0.00;102943.50;5030181;28;20569;-68
2021/10/06 00:08:44;;;;;;;8.67;4.20;;;;;;;-145.18;0.00;102943.50;5038112;28;20362;-68
2021/10/06 00:11:09;;;;;;;11.23;4.47;;;;;;;-145.18;0.00;102943.50;5033602;28;20323;-68
2021/10/06 00:13:35;;;;;;;10.30;4.53;;;;;;;-145.18;0.00;102943.50;5038459;28;20025;-68
2021/10/06 00:16:01;;;;;;;16.67;5.10;;;;;;;-145.18;0.00;102943.50;5033043;28;20549;-67
2021/10/06 00:18:27;;;;;;;9.57;4.50;;;;;;;-145.18;0.00;102943.50;5037023;28;20060;-68
2021/10/06 00:20:52;;;;;;;9.97;4.67;;;;;;;-145.18;0.00;102943.50;5024580;28;20032;-68
2021/10/06 00:23:18;;;;;;;15.80;4.40;;;;;;;-145.18;0.00;102943.50;5033457;28;20029;-68
2021/10/06 00:25:44;;;;;;;14.30;4.77;;;;;;;-145.18;0.00;102943.50;5030946;28;20029;-68
2021/10/06 00:28:09;;;;;;;14.03;4.80;;;;;;;-145.18;0.00;102943.50;5028093;28;20061;-68
2021/10/06 00:30:35;;;;;;;8.40;4.23;;;;;;;-145.18;0.00;102943.50;5028655;28;20029;-68
2021/10/06 00:33:00;;;;;;;11.47;4.40;;;;;;;-145.18;0.00;102943.50;5038002;28;20443;-68
2021/10/06 00:35:26;;;;;;;11.20;4.47;;;;;;;-145.18;0.00;102943.50;5026365;28;20463;-68
2021/10/06 00:37:51;;;;;;;10.70;4.23;;;;;;;-145.18;0.00;102943.50;5028889;28;20522;-68
2021/10/06 00:40:17;;;;;;;12.03;4.73;;;;;;;-145.18;0.00;102943.50;5031264;28;20290;-68
2021/10/06 00:42:42;;;;;;;13.97;5.37;;;;;;;-145.18;0.00;102943.50;5032010;28;20033;-68
2021/10/06 00:45:09;;;;;;;9.20;4.00;;;;;;;-145.18;0.00;102943.50;5036664;28;20399;-68
2021/10/06 00:47:34;;;;;;;8.83;4.40;;;;;;;-145.18;0.00;102943.50;5039624;28;20039;-68
2021/10/06 00:50:00;;;;;;;11.53;4.00;;;;;;;-145.18;0.00;102943.50;5029919;28;20025;-68
2021/10/06 00:52:25;;;;;;;8.93;4.37;;;;;;;-145.18;0.00;102943.50;5032194;28;20131;-68
2021/10/06 00:54:52;;;;;;;9.10;4.13;;;;;;;-145.18;0.00;102943.50;5030550;28;20086;-68
2021/10/06 00:57:17;;;;;;;9.50;4.23;;;;;;;-145.18;0.00;102943.50;5030797;28;20033;-68
2021/10/06 00:59:43;;;;;;;10.97;3.73;;;;;;;-145.18;0.00;102943.50;5038660;28;20029;-68
2021/10/06 01:02:08;;;;;;;11.03;4.70;;;;;;;-145.18;0.00;102943.50;5048829;22;20055;-70
2021/10/06 01:04:35;;;;;;;8.87;3.90;;;;;;;-145.18;0.00;102943.50;5075765;28;20298;-70
2021/10/06 01:07:01;;;;;;;9.27;3.57;;;;;;;-145.18;0.00;102943.50;5079795;28;20197;-70
2021/10/06 01:09:29;;;;;;;12.10;3.77;;;;;;;-145.18;0.00;102943.50;5068537;28;20062;-70
2021/10/06 01:11:56;;;;;;;7.17;3.17;;;;;;;-145.18;0.00;102943.50;5076202;28;20065;-70
2021/10/06 01:14:23;;;;;;;10.83;3.90;;;;;;;-145.18;0.00;102943.50;5074873;28;20036;-70
2021/10/06 01:16:50;;;;;;;7.73;3.60;;;;;;;-145.18;0.00;102943.50;5071956;28;20540;-70
2021/10/06 01:19:25;;;;;;;10.83;3.60;;;;;;;-145.18;0.00;102943.50;5072936;28;20028;-70
2021/10/06 01:21:52;;;;;;;7.43;3.40;;;;;;;-145.18;0.00;102943.50;5075409;28;20602;-70
2021/10/06 01:24:18;;;;;;;8.33;3.47;;;;;;;-145.18;0.00;102943.50;5077574;28;20118;-72
2021/10/06 01:26:44;;;;;;;7.83;3.70;;;;;;;-145.18;0.00;102943.50;5076631;28;20775;-72
2021/10/06 01:29:11;;;;;;;8.93;3.23;;;;;;;-145.18;0.00;102943.50;5079657;28;20020;-72
2021/10/06 01:31:36;;;;;;;7.47;3.33;;;;;;;-145.18;0.00;102943.50;5080217;28;20050;-72
2021/10/06 01:34:02;;;;;;;8.53;2.83;;;;;;;-145.18;0.00;102943.50;5077318;28;20032;-72
2021/10/06 01:36:28;;;;;;;5.97;3.00;;;;;;;-145.18;0.00;102943.50;5078565;28;20548;-72
2021/10/06 01:38:53;;;;;;;9.77;3.40;;;;;;;-145.18;0.00;102943.50;5066903;28;20036;-73
2021/10/06 01:41:19;;;;;;;7.13;2.60;;;;;;;-145.18;0.00;102943.50;5068013;28;20100;-73
2021/10/06 01:43:44;;;;;;;10.40;3.37;;;;;;;-145.18;0.00;102943.50;5078254;28;20035;-72
2021/10/06 01:46:10;;;;;;;8.50;2.93;;;;;;;-145.18;0.00;102943.50;5073984;28;20028;-72
2021/10/06 01:48:36;;;;;;;5.87;2.60;;;;;;;-145.18;0.00;102943.50;5072395;28;20036;-72
2021/10/06 01:51:01;;;;;;;7.80;2.30;;;;;;;-145.18;0.00;102943.50;5071658;28;20033;-73
2021/10/06 01:53:37;;;;;;;8.97;3.27;;;;;;;-145.18;0.00;102943.50;5062802;28;20040;-72
2021/10/06 01:56:03;;;;;;;5.10;2.10;;;;;;;-145.18;0.00;102943.50;5071613;28;20039;-72
2021/10/06 01:58:29;;;;;;;6.90;2.00;;;;;;;-145.18;0.00;102943.50;5068500;28;20028;-72
2021/10/06 02:00:55;;;;;;;5.23;2.00;;;;;;;-145.18;0.00;102943.50;5069574;28;20035;-72
2021/10/06 02:03:20;;;;;;;4.50;1.90;;;;;;;-145.18;0.00;102943.50;5074668;28;20295;-72
2021/10/06 02:05:46;;;;;;;4.97;2.00;;;;;;;-145.18;0.00;102943.50;5067587;28;20033;-72
2021/10/06 02:08:15;;;;;;;5.40;1.93;;;;;;;-145.18;0.00;102943.50;5069722;28;20185;-73
2021/10/06 02:10:42;;;;;;;7.27;2.20;;;;;;;-145.18;0.00;102943.50;5073831;28;20246;-72
2021/10/06 02:13:08;;;;;;;5.27;2.20;;;;;;;-145.18;0.00;102943.50;5070399;28;20036;-73
2021/10/06 02:15:33;;;;;;;5.10;2.17;;;;;;;-145.18;0.00;102943.50;5074004;28;20028;-73
2021/10/06 02:18:00;;;;;;;5.70;2.40;;;;;;;-145.18;0.00;102943.50;5078211;28;20035;-72
2021/10/06 02:20:26;;;;;;;5.87;2.67;;;;;;;-145.18;0.00;102943.50;5073232;28;20700;-72
2021/10/06 02:22:51;;;;;;;7.00;2.30;;;;;;;-145.18;0.00;102943.50;5074956;28;20392;-72
2021/10/06 02:25:17;;;;;;;5.73;1.97;;;;;;;-145.18;0.00;102943.50;5079134;28;20028;-72
2021/10/06 02:27:43;;;;;;;5.93;2.00;;;;;;;-145.18;0.00;102943.50;5068366;28;20047;-71
2021/10/06 02:30:09;;;;;;;4.63;2.30;;;;;;;-145.18;0.00;102943.50;5074594;28;20568;-71
2021/10/06 02:32:35;;;;;;;5.93;2.33;;;;;;;-145.18;0.00;102943.50;5071713;28;20020;-71
2021/10/06 02:35:01;;;;;;;5.57;2.30;;;;;;;-145.18;0.00;102943.50;5070694;28;20145;-71
2021/10/06 02:37:27;;;;;;;7.40;2.33;;;;;;;-145.18;0.00;102943.50;5077010;28;20546;-71
2021/10/06 02:39:52;;;;;;;6.50;2.20;;;;;;;-145.18;0.00;102943.50;5071035;28;20028;-71
2021/10/06 02:42:18;;;;;;;6.23;2.83;;;;;;;-145.18;0.00;102943.50;5078985;28;20024;-71
2021/10/06 02:44:44;;;;;;;5.53;2.40;;;;;;;-145.18;0.00;102943.50;5078064;28;20028;-71
2021/10/06 02:47:09;;;;;;;7.20;2.60;;;;;;;-145.18;0.00;102943.50;5074737;28;20589;-71
2021/10/06 02:49:36;;;;;;;5.97;2.80;;;;;;;-145.18;0.00;102943.50;5072220;28;20299;-71
2021/10/06 02:52:04;;;;;;;5.57;2.93;;;;;;;-145.18;0.00;102943.50;5071099;28;20055;-68
2021/10/06 02:54:30;;;;;;;5.20;2.97;;;;;;;-145.18;0.00;102943.50;5068823;28;20020;-71
2021/10/06 02:57:01;;;;;;;7.27;2.70;;;;;;;-145.18;0.00;102943.50;5071517;28;20494;-71
2021/10/06 02:59:33;;;;;;;6.20;3.43;;;;;;;-145.18;0.00;102943.50;5069493;28;20533;-71
2021/10/06 03:01:58;;;;;;;7.60;3.22;;;;;;;-145.18;0.00;102943.50;5077698;28;20524;-71
2021/10/06 03:04:27;;;;;;;6.47;3.03;;;;;;;-145.18;0.00;102943.50;5077261;28;20052;-71
2021/10/06 03:06:53;;;;;;;8.73;3.10;;;;;;;-145.18;0.00;102943.50;5068283;28;20232;-71
2021/10/06 03:09:18;;;;;;;14.40;3.40;;;;;;;-145.18;0.00;102943.50;5066430;28;20064;-71
2021/10/06 03:11:44;;;;;;;6.60;3.23;;;;;;;-145.18;0.00;102943.50;5077776;28;20023;-71
2021/10/06 03:14:10;;;;;;;8.87;3.17;;;;;;;-145.18;0.00;102943.50;5067165;28;20416;-71
2021/10/06 03:16:36;;;;;;;8.53;3.20;;;;;;;-145.18;0.00;102943.50;5078580;28;20043;-71
2021/10/06 03:19:02;;;;;;;8.97;3.37;;;;;;;-145.18;0.00;102943.50;5077035;28;20047;-71
2021/10/06 03:21:28;;;;;;;10.30;3.90;;;;;;;-145.18;0.00;102943.50;5078937;28;20055;-71
2021/10/06 03:23:54;;;;;;;10.87;4.10;;;;;;;-145.18;0.00;102943.50;5077251;28;20234;-71
2021/10/06 03:26:20;;;;;;;7.10;3.57;;;;;;;-145.18;0.00;102943.50;5072352;28;20028;-71
2021/10/06 03:28:45;;;;;;;9.70;3.83;;;;;;;-145.18;0.00;102943.50;5076068;28;20234;-72
2021/10/06 03:31:11;;;;;;;8.37;3.37;;;;;;;-145.18;0.00;102943.50;5073758;28;20024;-71
2021/10/06 03:33:36;;;;;;;9.03;3.70;;;;;;;-145.18;0.00;102943.50;5068391;28;20306;-71
2021/10/06 03:36:05;;;;;;;8.53;3.13;;;;;;;-145.18;0.00;102943.50;5064694;28;20031;-71
2021/10/06 03:38:30;;;;;;;10.43;3.63;;;;;;;-145.18;0.00;102943.50;5073675;28;20055;-73
2021/10/06 03:40:56;;;;;;;7.30;3.53;;;;;;;-145.18;0.00;102943.50;5082272;28;20047;-72
2021/10/06 03:43:25;;;;;;;9.80;4.30;;;;;;;-145.18;0.00;102943.50;5080922;28;20031;-72
2021/10/06 03:45:51;;;;;;;9.63;3.67;;;;;;;-145.18;0.00;102943.50;5081336;28;20036;-72
2021/10/06 03:48:16;;;;;;;5.70;3.40;;;;;;;-145.18;0.00;102943.50;5078459;28;20036;-72
2021/10/06 03:50:43;;;;;;;7.73;3.37;;;;;;;-145.18;0.00;102943.50;5079434;28;20115;-72
2021/10/06 03:53:09;;;;;;;8.43;4.03;;;;;;;-145.18;0.00;102943.50;5078889;28;20666;-72
2021/10/06 03:55:35;;;;;;;7.80;3.63;;;;;;;-145.18;0.00;102943.50;5079233;28;20267;-72
2021/10/06 03:58:01;;;;;;;10.77;3.67;;;;;;;-145.18;0.00;102943.50;5069471;28;20449;-72
2021/10/06 04:00:27;;;;;;;7.80;3.60;;;;;;;-145.18;0.00;102943.50;5078877;28;20024;-72
2021/10/06 04:02:52;;;;;;;8.10;3.90;;;;;;;-145.18;0.00;102943.50;5069531;28;20055;-72
2021/10/06 04:05:18;;;;;;;6.40;3.63;;;;;;;-145.18;0.00;102943.50;5074147;28;20032;-72
2021/10/06 04:07:43;;;;;;;10.03;3.87;;;;;;;-145.18;0.00;102943.50;5078457;28;20019;-72
2021/10/06 04:10:09;;;;;;;7.20;3.70;;;;;;;-145.18;0.00;102943.50;5077752;28;20074;-72
2021/10/06 04:12:35;;;;;;;8.90;4.00;;;;;;;-145.18;0.00;102943.50;5075295;28;20061;-72
2021/10/06 04:15:00;;;;;;;9.27;4.00;;;;;;;-145.18;0.00;102943.50;5074608;28;20021;-72
2021/10/06 04:17:26;;;;;;;7.67;3.90;;;;;;;-145.18;0.00;102943.50;5079988;28;20488;-72
2021/10/06 04:19:51;;;;;;;11.10;4.00;;;;;;;-145.18;0.00;102943.50;5070594;28;20020;-72
2021/10/06 04:22:17;;;;;;;8.40;3.97;;;;;;;-145.18;0.00;102943.50;5073797;28;20154;-72
2021/10/06 04:24:43;;;;;;;12.80;5.00;;;;;;;-145.18;0.00;102943.50;5074279;28;20148;-72
2021/10/06 04:27:09;;;;;;;8.50;4.27;;;;;;;-145.18;0.00;102943.50;5081999;28;20020;-70
2021/10/06 04:29:35;;;;;;;10.03;3.80;;;;;;;-145.18;0.00;102943.50;5076379;28;20092;-70
2021/10/06 04:32:01;;;;;;;10.17;3.93;;;;;;;-145.18;0.00;102943.50;5076210;28;20283;-70
2021/10/06 04:34:26;;;;;;;12.20;3.80;;;;;;;-145.18;0.00;102943.50;5076189;28;20449;-70
2021/10/06 04:36:52;;;;;;;9.17;3.80;;;;;;;-145.18;0.00;102943.50;5073154;28;20031;-72
2021/10/06 04:39:18;;;;;;;8.97;3.77;;;;;;;-145.18;0.00;102943.50;5073312;28;20267;-72
2021/10/06 04:41:43;;;;;;;9.70;4.00;;;;;;;-145.18;0.00;102943.50;5075418;28;20031;-72
2021/10/06 04:44:08;;;;;;;6.43;3.70;;;;;;;-145.18;0.00;102943.50;5080151;28;20024;-72
2021/10/06 04:46:34;;;;;;;7.73;4.10;;;;;;;-145.18;0.00;102943.50;5077962;28;20027;-72
2021/10/06 04:49:01;;;;;;;8.87;4.07;;;;;;;-145.18;0.00;102943.50;5074413;28;20119;-72
2021/10/06 04:51:27;;;;;;;8.43;3.87;;;;;;;-145.18;0.00;102943.50;5068579;28;20066;-72
2021/10/06 04:53:53;;;;;;;7.00;3.63;;;;;;;-145.18;0.00;102943.50;5068630;28;20024;-72
2021/10/06 04:56:18;;;;;;;10.67;4.47;;;;;;;-145.18;0.00;102943.50;5074662;28;20020;-72
2021/10/06 04:58:44;;;;;;;10.00;3.70;;;;;;;-145.18;0.00;102943.50;5073640;28;20100;-72
2021/10/06 05:01:10;;;;;;;11.90;4.20;;;;;;;-145.18;0.00;102943.50;5071004;28;20030;-72
2021/10/06 05:03:35;;;;;;;13.50;4.27;;;;;;;-145.18;0.00;102943.50;5072355;28;20040;-72
2021/10/06 05:06:01;;;;;;;7.77;4.13;;;;;;;-145.18;0.00;102943.50;5074272;28;20165;-72
2021/10/06 05:08:27;;;;;;;8.77;3.77;;;;;;;-145.18;0.00;102943.50;5078085;28;20024;-72
2021/10/06 05:10:53;;;;;;;5.87;3.30;;;;;;;-145.18;0.00;102943.50;5077214;28;20468;-72
2021/10/06 05:13:18;;;;;;;10.10;3.60;;;;;;;-145.18;0.00;102943.50;5076393;28;20123;-72
2021/10/06 05:15:44;;;;;;;10.17;4.20;;;;;;;-145.18;0.00;102943.50;5076714;28;20472;-72
2021/10/06 05:18:09;;;;;;;8.77;3.90;;;;;;;-145.18;0.00;102943.50;5079724;28;20033;-72
2021/10/06 05:20:35;;;;;;;7.27;3.27;;;;;;;-145.18;0.00;102943.50;5079986;28;20055;-72
2021/10/06 05:23:00;;;;;;;9.63;3.30;;;;;;;-145.18;0.00;102943.50;5078467;28;20211;-72
2021/10/06 05:25:26;;;;;;;10.73;3.40;;;;;;;-145.18;0.00;102943.50;5079396;28;20336;-72
2021/10/06 05:27:52;;;;;;;10.67;3.90;;;;;;;-145.18;0.00;102943.50;5073302;28;20059;-72
2021/10/06 05:30:18;;;;;;;8.97;3.67;;;;;;;-145.18;0.00;102943.50;5078542;28;20063;-72
2021/10/06 05:32:46;;;;;;;8.70;3.67;;;;;;;-145.18;0.00;102943.50;5073220;28;20308;-72
2021/10/06 05:35:12;;;;;;;7.53;3.30;;;;;;;-145.18;0.00;102943.50;5078700;28;20496;-72
2021/10/06 05:37:38;;;;;;;7.17;3.60;;;;;;;-145.18;0.00;102943.50;5080512;28;20280;-72
2021/10/06 05:40:05;;;;;;;7.57;3.40;;;;;;;-145.18;0.00;102943.50;5072220;28;20027;-72
2021/10/06 05:42:30;;;;;;;7.70;3.40;;;;;;;-145.18;0.00;102943.50;5072413;28;20020;-72
2021/10/06 05:44:56;;;;;;;7.53;3.10;;;;;;;-145.18;0.00;102943.50;5073410;28;20081;-72
2021/10/06 05:47:21;;;;;;;9.27;3.07;;;;;;;-145.18;0.00;102943.50;5080094;28;20107;-72
2021/10/06 05:49:47;;;;;;;6.23;2.77;;;;;;;-145.18;0.00;102943.50;5071471;28;20028;-72
2021/10/06 05:52:12;;;;;;;13.33;2.93;;;;;;;-145.18;0.00;102943.50;5067061;28;20073;-72
2021/10/06 05:54:38;;;;;;;6.43;3.47;;;;;;;-145.18;0.00;102943.50;5066668;28;20421;-72
2021/10/06 05:57:04;;;;;;;11.57;3.60;;;;;;;-145.18;0.00;102943.50;5073806;28;20406;-72
2021/10/06 05:59:31;;;;;;;8.63;3.60;;;;;;;-145.18;0.00;102943.50;5073319;28;20306;-72
2021/10/06 06:01:57;;;;;;;12.67;3.40;;;;;;;-145.18;0.00;102943.50;5079582;28;20035;-72
2021/10/06 06:04:22;;;;;;;10.43;3.43;;;;;;;-145.18;0.00;102943.50;5073853;28;20442;-72
2021/10/06 06:06:48;;;;;;;7.33;3.17;;;;;;;-145.18;0.00;102943.50;5083235;28;20052;-72
2021/10/06 06:09:14;;;;;;;6.27;2.83;;;;;;;-145.18;0.00;102943.50;5072065;28;20019;-72
2021/10/06 06:11:40;;;;;;;6.07;3.00;;;;;;;-145.18;0.00;102943.50;5080086;28;20609;-72
2021/10/06 06:14:06;;;;;;;7.17;3.10;;;;;;;-145.18;0.00;102943.50;5074273;28;20024;-72
2021/10/06 06:16:32;;;;;;;9.30;2.90;;;;;;;-145.18;0.00;102943.50;5079920;28;20030;-72
2021/10/06 06:18:57;;;;;;;7.33;3.23;;;;;;;-145.18;0.00;102943.50;5074755;28;20027;-72
2021/10/06 06:21:23;;;;;;;6.30;3.00;;;;;;;-145.18;0.00;102943.50;5079638;28;20009;-72
2021/10/06 06:23:49;;;;;;;6.63;2.97;;;;;;;-145.18;0.00;102943.50;5076070;28;20046;-72
2021/10/06 06:26:18;;;;;;;6.47;3.00;;;;;;;-145.18;0.00;102943.50;5076458;28;20280;-72
2021/10/06 06:28:43;;;;;;;9.63;3.07;;;;;;;-145.18;0.00;102943.50;5075007;28;20028;-72
2021/10/06 06:31:10;;;;;;;10.63;3.20;;;;;;;-145.18;0.00;102943.50;5068515;28;20408;-72
2021/10/06 06:33:36;;;;;;;5.47;2.70;;;;;;;-145.18;0.00;102943.50;5076743;28;20054;-72
2021/10/06 06:36:04;;;;;;;10.20;3.60;;;;;;;-145.18;0.00;102943.50;5079848;28;20036;-72
2021/10/06 06:38:29;;;;;;;6.80;3.30;;;;;;;-145.18;0.00;102943.50;5079108;28;20472;-72
2021/10/06 06:40:55;;;;;;;5.87;3.03;;;;;;;-145.18;0.00;102943.50;5079075;28;20020;-72
2021/10/06 06:43:21;;;;;;;7.77;2.87;;;;;;;-145.18;0.00;102943.50;5074745;28;20093;-72
2021/10/06 06:45:47;;;;;;;8.67;3.10;;;;;;;-145.18;0.00;102943.50;5071564;28;20039;-72
2021/10/06 06:48:12;;;;;;;9.50;3.40;;;;;;;-145.18;0.00;102943.50;5075625;28;20590;-72
2021/10/06 06:50:38;;;;;;;7.63;3.10;;;;;;;-145.18;0.00;102943.50;5072782;28;20048;-72
2021/10/06 06:53:04;;;;;;;7.47;3.40;;;;;;;-145.18;0.00;102943.50;5076786;28;20020;-72
2021/10/06 06:55:29;;;;;;;9.00;3.53;;;;;;;-145.18;0.00;102943.50;5078922;28;20024;-72
2021/10/06 06:57:55;;;;;;;8.50;3.23;;;;;;;-145.18;0.00;102943.50;5078249;28;20472;-72
2021/10/06 07:00:21;;;;;;;9.27;3.33;;;;;;;-145.18;0.00;102943.50;5070404;28;20100;-72
2021/10/06 07:02:47;;;;;;;8.20;2.87;;;;;;;-145.18;0.00;102943.50;5078513;28;20190;-72
2021/10/06 07:05:13;;;;;;;8.63;3.17;;;;;;;-145.18;0.00;102943.50;5070188;28;20059;-72
2021/10/06 07:07:38;;;;;;;8.43;3.57;;;;;;;-145.18;0.00;102943.50;5082107;28;20099;-73
2021/10/06 07:10:04;;;;;;;6.53;2.90;;;;;;;-145.18;0.00;102943.50;5075588;28;20024;-72
2021/10/06 07:12:30;;;;;;;5.40;3.20;;;;;;;-145.18;0.00;102943.50;5079107;28;20172;-72
2021/10/06 07:14:56;;;;;;;11.10;3.30;;;;;;;-145.18;0.00;102943.50;5077209;28;20107;-72
2021/10/06 07:17:22;;;;;;;5.60;2.70;;;;;;;-145.18;0.00;102943.50;5078889;28;20281;-72
2021/10/06 07:19:47;;;;;;;6.67;3.03;;;;;;;-145.18;0.00;102943.50;5078022;28;20506;-72
2021/10/06 07:22:15;;;;;;;6.57;2.80;;;;;;;-145.18;0.00;102943.50;5078987;28;20020;-72
2021/10/06 07:24:41;;;;;;;4.93;2.70;;;;;;;-145.18;0.00;102943.50;5068636;28;20024;-72
2021/10/06 07:27:07;;;;;;;8.77;3.00;;;;;;;-145.18;0.00;102943.50;5081593;28;20034;-72
2021/10/06 07:29:32;;;;;;;10.20;2.50;;;;;;;-145.18;0.00;102943.50;5066688;28;20043;-72
2021/10/06 07:31:58;;;;;;;8.00;2.67;;;;;;;-145.18;0.00;102943.50;5078708;28;20166;-72
2021/10/06 07:34:24;;;;;;;7.20;2.83;;;;;;;-145.18;0.00;102943.50;5067988;28;20100;-72
2021/10/06 07:36:50;;;;;;;5.30;3.00;;;;;;;-145.18;0.00;102943.50;5079013;28;20020;-72
2021/10/06 07:39:15;;;;;;;7.73;3.10;;;;;;;-145.18;0.00;102943.50;5075166;28;20073;-72
2021/10/06 07:41:44;;;;;;;5.97;2.77;;;;;;;-145.18;0.00;102943.50;5078616;28;20242;-72
2021/10/06 07:44:10;;;;;;;7.27;3.17;;;;;;;-145.18;0.00;102943.50;5069674;28;20618;-72
2021/10/06 07:46:39;;;;;;;7.77;2.73;;;;;;;-145.18;0.00;102943.50;5078719;28;20099;-72
2021/10/06 07:49:05;;;;;;;5.63;2.43;;;;;;;-145.18;0.00;102943.50;5070988;28;20136;-72
2021/10/06 07:51:30;;;;;;;8.47;3.03;;;;;;;-145.18;0.00;102943.50;5078335;28;20115;-72
2021/10/06 07:53:56;;;;;;;4.57;2.07;;;;;;;-145.18;0.00;102943.50;5076166;28;20042;-72
2021/10/06 07:56:23;;;;;;;5.73;2.60;;;;;;;-145.18;0.00;102943.50;5078900;28;20507;-72
2021/10/06 07:58:48;;;;;;;6.70;2.53;;;;;;;-145.18;0.00;102943.50;5073124;28;20527;-72
2021/10/06 08:01:14;;;;;;;4.63;2.13;;;;;;;-145.18;0.00;102943.50;5078198;28;20096;-72
2021/10/06 08:03:39;;;;;;;7.00;2.57;;;;;;;-145.18;0.00;102943.50;5074008;28;20072;-72
2021/10/06 08:06:05;;;;;;;6.17;2.50;;;;;;;-145.18;0.00;102943.50;5078848;28;20020;-72
2021/10/06 08:08:30;;;;;;;4.10;2.27;;;;;;;-145.18;0.00;102943.50;5078554;28;20074;-72
2021/10/06 08:10:59;;;;;;;6.60;2.27;;;;;;;-145.18;0.00;102943.50;5078439;28;20031;-72
2021/10/06 08:13:25;;;;;;;3.83;1.93;;;;;;;-145.18;0.00;102943.50;5076832;28;20723;-72
2021/10/06 08:15:52;;;;;;;4.00;1.90;;;;;;;-145.18;0.00;102943.50;5078655;28;20095;-72
2021/10/06 08:18:19;;;;;;;4.87;2.03;;;;;;;-145.18;0.00;102943.50;5078802;28;20276;-72
2021/10/06 08:20:46;;;;;;;7.00;2.33;;;;;;;-145.18;0.00;102943.50;5082359;28;20059;-72
2021/10/06 08:23:12;;;;;;;8.30;2.17;;;;;;;-145.18;0.00;102943.50;5078975;28;20033;-72
2021/10/06 08:25:38;;;;;;;5.80;2.50;;;;;;;-145.18;0.00;102943.50;5072312;28;20026;-72
2021/10/06 08:28:03;;;;;;;4.97;1.90;;;;;;;-145.18;0.00;102943.50;5080501;28;20190;-72
2021/10/06 08:30:30;;;;;;;7.17;2.37;;;;;;;-145.18;0.00;102943.50;5080766;28;20146;-72
2021/10/06 08:32:56;;;;;;;5.37;2.13;;;;;;;-145.18;0.00;102943.50;5081280;28;20034;-72
2021/10/06 08:35:21;;;;;;;4.60;2.13;;;;;;;-145.18;0.00;102943.50;5070934;28;20032;-72
2021/10/06 08:37:47;;;;;;;5.20;2.07;;;;;;;-145.18;0.00;102943.50;5081960;28;20024;-72
2021/10/06 08:40:13;;;;;;;6.33;2.17;;;;;;;-145.18;0.00;102943.50;5071922;28;20024;-72
2021/10/06 08:42:41;;;;;;;5.53;1.80;;;;;;;-145.18;0.00;102943.50;5081581;28;20456;-70
2021/10/06 08:45:08;;;;;;;5.00;1.67;;;;;;;-145.18;0.00;102943.50;5070113;28;20103;-71
2021/10/06 08:47:41;;;;;;;6.00;1.63;;;;;;;-145.18;0.00;102943.50;5078748;28;20105;-71
2021/10/06 08:50:10;;;;;;;2.63;1.40;;;;;;;-145.18;0.00;102943.50;5074167;28;20031;-71
2021/10/06 08:52:36;;;;;;;3.30;1.40;;;;;;;-145.18;0.00;102943.50;5081177;28;20116;-70
2021/10/06 08:55:04;;;;;;;8.90;2.43;;;;;;;-145.18;0.00;102943.50;5079326;28;20036;-71
2021/10/06 08:57:30;;;;;;;5.47;1.50;;;;;;;-145.18;0.00;102943.50;5081425;28;20020;-71
2021/10/06 08:59:55;;;;;;;8.40;1.90;;;;;;;-145.18;0.00;102943.50;5076200;28;20031;-70
2021/10/06 09:02:21;;;;;;;3.27;1.50;;;;;;;-145.18;0.00;102943.50;5081148;28;20111;-70
2021/10/06 09:04:50;;;;;;;2.50;1.50;;;;;;;-145.18;0.00;102943.50;5076842;28;20270;-70
2021/10/06 09:07:16;;;;;;;6.63;2.40;;;;;;;-145.18;0.00;102943.50;5081051;28;20054;-71
2021/10/06 09:09:41;;;;;;;3.13;1.50;;;;;;;-145.18;0.00;102943.50;5078447;28;20028;-71
2021/10/06 09:12:16;;;;;;;3.57;1.30;;;;;;;-145.18;0.00;102943.50;5081105;28;20059;-71
2021/10/06 09:14:43;;;;;;;5.53;1.90;;;;;;;-145.18;0.00;102943.50;5079317;28;20082;-71
2021/10/06 09:17:12;;;;;;;4.83;1.70;;;;;;;-145.18;0.00;102943.50;5081448;28;20357;-71
2021/10/06 09:19:53;;;;;;;4.00;1.90;;;;;;;-145.18;0.00;102943.50;5079272;28;20036;-71
2021/10/06 09:22:27;;;;;;;5.10;2.10;;;;;;;-145.18;0.00;102943.50;5081030;28;20047;-71
2021/10/06 09:25:05;;;;;;;4.63;1.70;;;;;;;-145.18;0.00;102943.50;5080284;28;20328;-71
2021/10/06 09:27:34;;;;;;;4.70;1.50;;;;;;;-145.18;0.00;102943.50;5080942;28;20050;-71
2021/10/06 09:30:05;;;;;;;3.67;1.40;;;;;;;-145.18;0.00;102943.50;5079440;28;20035;-71
2021/10/06 09:32:36;;;;;;;2.87;1.20;;;;;;;-145.18;0.00;102943.50;5080941;28;20028;-71
2021/10/06 09:35:13;;;;;;;3.50;1.58;;;;;;;-145.18;0.00;102943.50;5068412;28;20032;-71
2021/10/06 09:37:43;;;;;;;3.20;1.10;;;;;;;-145.18;0.00;102943.50;5080587;28;20020;-71
2021/10/06 09:40:12;;;;;;;4.33;1.10;;;;;;;-145.18;0.00;102943.50;5080418;28;20365;-71
2021/10/06 09:42:48;;;;;;;2.27;1.10;;;;;;;-145.18;0.00;102943.50;5080630;28;20032;-71
2021/10/06 09:45:26;;;;;;;2.93;1.07;;;;;;;-145.18;0.00;102943.50;5070186;28;20496;-71
2021/10/06 09:48:06;;;;;;;3.07;1.00;;;;;;;-145.18;0.00;102943.50;5079886;28;20077;-71
2021/10/06 09:50:34;;;;;;;1.93;0.90;;;;;;;-145.18;0.00;102943.50;5073912;28;20023;-71
2021/10/06 09:53:14;;;;;;;2.10;0.87;;;;;;;-145.18;0.00;102943.50;5079034;28;20020;-71
2021/10/06 09:55:43;;;;;;;3.13;0.93;;;;;;;-145.18;0.00;102943.50;5075747;28;20151;-71
2021/10/06 09:58:10;;;;;;;2.20;0.90;;;;;;;-145.18;0.00;102943.50;5077664;28;20059;-71
2021/10/06 10:00:37;;;;;;;1.80;0.90;;;;;;;-145.18;0.00;102943.50;5076785;28;20032;-71
2021/10/06 10:03:04;;;;;;;2.20;1.10;;;;;;;-145.18;0.00;102943.50;5078234;28;20117;-71
2021/10/06 10:05:30;;;;;;;2.37;1.10;;;;;;;-145.18;0.00;102943.50;5076448;28;20050;-71
2021/10/06 10:07:56;;;;;;;2.27;1.17;;;;;;;-145.18;0.00;102943.50;5082289;28;20039;-71
2021/10/06 10:10:22;;;;;;;2.13;1.03;;;;;;;-145.18;0.00;102943.50;5078636;28;20027;-71
2021/10/06 10:12:48;;;;;;;2.87;1.20;;;;;;;-145.18;0.00;102943.50;5080503;28;20058;-71
2021/10/06 10:15:16;;;;;;;2.93;1.10;;;;;;;-145.18;0.00;102943.50;5078429;28;20085;-71
2021/10/06 10:17:42;;;;;;;4.80;1.30;;;;;;;-145.18;0.00;102943.50;5080482;28;20032;-71
2021/10/06 10:20:14;;;;;;;2.40;0.90;;;;;;;-145.18;0.00;102943.50;5079794;28;20392;-71
2021/10/06 10:22:49;;;;;;;3.53;1.30;;;;;;;-145.18;0.00;102943.50;5080345;28;20445;-71
2021/10/06 10:25:26;;;;;;;3.93;1.30;;;;;;;-145.18;0.00;102943.50;5067359;28;20097;-71
2021/10/06 10:28:38;;;;;;;3.00;1.40;;;;;;;-145.18;0.00;102943.50;5079496;28;20274;-71
2021/10/06 10:31:03;;;;;;;2.33;1.23;;;;;;;-145.18;0.00;102943.50;4991804;28;20285;-71
2021/10/06 10:33:56;;;;;;;3.70;1.40;;;;;;;-145.18;0.00;102943.50;5054066;28;20551;-71
2021/10/06 10:36:53;;;;;;;2.17;1.20;;;;;;;-145.18;0.00;102943.50;5073830;28;20048;-70
2021/10/06 10:39:57;;;;;;;3.33;1.40;;;;;;;-145.18;0.00;102943.50;5046385;28;20476;-71
2021/10/06 10:42:58;;;;;;;3.17;1.77;;;;;;;-145.18;0.00;102943.50;5076615;28;20111;-72
2021/10/06 10:45:52;;;;;;;3.23;1.80;;;;;;;-145.18;0.00;102943.50;5072405;28;20524;-72
2021/10/06 10:48:27;;;;;;;4.00;1.70;;;;;;;-145.18;0.00;102943.50;5071441;28;20488;-72
2021/10/06 10:51:14;;;;;;;5.13;1.77;;;;;;;-145.18;0.00;102943.50;5076581;28;20115;-72
2021/10/06 10:54:09;;;;;;;2.67;1.60;;;;;;;-145.18;0.00;102943.50;5076702;28;20114;-72
2021/10/06 10:56:44;;;;;;;4.47;2.10;;;;;;;-145.18;0.00;102943.50;5077308;28;20122;-72
2021/10/06 10:59:26;;;;;;;4.93;1.80;;;;;;;-145.18;0.00;102943.50;5072937;28;20031;-72
2021/10/06 11:01:56;;;;;;;4.32;1.80;;;;;;;-145.18;0.00;102943.50;5079617;28;20030;-72
2021/10/06 11:04:35;;;;;;;3.53;1.70;;;;;;;-145.18;0.00;102943.50;5074294;28;20203;-72
2021/10/06 11:07:19;;;;;;;2.83;1.40;;;;;;;-145.18;0.00;102943.50;5079070;28;20032;-72
2021/10/06 11:09:51;;;;;;;3.50;1.90;;;;;;;-145.18;0.00;102943.50;5078737;28;20396;-72
2021/10/06 11:12:30;;;;;;;2.50;1.50;;;;;;;-145.18;0.00;102943.50;5079318;28;20024;-72
2021/10/06 11:15:34;;;;;;;7.30;1.70;;;;;;;-145.18;0.00;102943.50;5077425;28;20047;-72
2021/10/06 11:18:18;;;;;;;6.07;2.00;;;;;;;-145.18;0.00;102943.50;4995837;28;20053;-72
2021/10/06 11:20:56;;;;;;;3.27;1.73;;;;;;;-145.18;0.00;102943.50;4996523;28;20543;-72